Beerse, Belgium
Current Conditions -  °F | °C
As of 12:55 AM on Sunday 23 Nov 2014 (Local Time) from EHGR Reporting Station
Haze Haze  
Wind Chill: 50°   Ceiling: 11000
Heat Index: 50°   Visibility: 6mi
Dew Point: 48°   Wind: 7mph
Humidity: 94%   Direction: 170°S
Pressure: 30.03"   Gusts: NA
Location:  51.32°N, 4.85°E
Report Text: EHGR 222355Z AUTO 17006KT 9000 BR BKN110 OVC160 10/09 Q1017 BLU
Loading
Personal Weather Stations






























Interactive Weather Map New forecast layout! Learn more

10-Day Weather Forecast

Advertisements
Track Severe Weather on mobile